createdAt,value
2023-02-22T00:03:01.343Z,3.67
2023-02-22T00:06:06.429Z,3.47
2023-02-22T00:09:10.476Z,3.72
2023-02-22T00:12:14.325Z,3.47
2023-02-22T00:15:19.579Z,3.97
2023-02-22T00:18:23.286Z,3.90
2023-02-22T00:21:26.330Z,3.58
2023-02-22T00:24:29.623Z,3.65
2023-02-22T00:27:32.558Z,3.60
2023-02-22T00:30:35.870Z,4.47
2023-02-22T00:33:39.484Z,3.75
2023-02-22T00:36:48.365Z,3.70
2023-02-22T00:39:51.559Z,3.85
2023-02-22T00:42:54.799Z,3.47
2023-02-22T00:45:58.163Z,3.97
2023-02-22T00:49:01.831Z,4.22
2023-02-22T00:52:05.095Z,3.37
2023-02-22T00:55:10.590Z,3.35
2023-02-22T00:58:14.436Z,3.45
2023-02-22T01:01:18.413Z,3.35
2023-02-22T01:04:21.598Z,3.70
2023-02-22T01:07:26.046Z,3.77
2023-02-22T01:10:31.112Z,3.97
2023-02-22T01:13:35.669Z,3.60
2023-02-22T01:16:38.956Z,3.87
2023-02-22T01:19:42.680Z,4.00
2023-02-22T01:22:48.285Z,3.62
2023-02-22T01:25:51.546Z,3.33
2023-02-22T01:28:54.183Z,3.85
2023-02-22T01:31:57.600Z,3.50
2023-02-22T01:35:00.251Z,3.15
2023-02-22T01:38:03.598Z,3.75
2023-02-22T01:41:06.686Z,3.92
2023-02-22T01:44:37.530Z,3.80
2023-02-22T01:47:40.979Z,3.70
2023-02-22T01:50:48.921Z,3.92
2023-02-22T01:54:04.051Z,3.80
2023-02-22T01:57:14.358Z,3.30
2023-02-22T02:00:21.216Z,3.47
2023-02-22T02:03:29.145Z,3.60
2023-02-22T02:06:34.008Z,4.03
2023-02-22T02:10:15.661Z,4.15
2023-02-22T02:13:18.671Z,3.92
2023-02-22T02:16:34.670Z,4.10
2023-02-22T02:19:53.072Z,4.05
2023-02-22T02:23:13.926Z,3.83
2023-02-22T02:26:35.121Z,3.80
2023-02-22T02:29:57.387Z,3.62
2023-02-22T02:33:20.939Z,3.85
2023-02-22T02:36:39.772Z,4.00
2023-02-22T02:39:57.156Z,3.80
2023-02-22T02:43:32.617Z,3.72
2023-02-22T02:46:43.492Z,4.20
2023-02-22T02:50:23.897Z,4.25
2023-02-22T02:53:34.734Z,4.82
2023-02-22T02:56:38.217Z,4.10
2023-02-22T02:59:41.473Z,3.97
2023-02-22T03:03:23.050Z,3.85
2023-02-22T03:06:42.149Z,3.62
2023-02-22T03:10:16.456Z,4.60
2023-02-22T03:13:36.448Z,3.87
2023-02-22T03:16:56.939Z,4.12
2023-02-22T03:20:06.463Z,4.35
2023-02-22T03:23:20.703Z,4.47
2023-02-22T03:29:52.206Z,4.10
2023-02-22T03:33:09.273Z,3.90
2023-02-22T03:36:20.379Z,4.40
2023-02-22T03:39:31.197Z,4.00
2023-02-22T03:42:37.735Z,4.30
2023-02-22T03:45:43.938Z,4.40
2023-02-22T03:49:05.434Z,4.25
2023-02-22T03:52:09.522Z,4.82
2023-02-22T03:55:14.112Z,4.22
2023-02-22T03:58:19.352Z,4.53
2023-02-22T04:01:24.023Z,4.68
2023-02-22T04:04:28.394Z,4.53
2023-02-22T04:07:32.864Z,4.50
2023-02-22T04:10:38.151Z,4.47
2023-02-22T04:13:41.135Z,4.40
2023-02-22T04:16:46.061Z,4.53
2023-02-22T04:19:49.146Z,4.57
2023-02-22T04:22:56.617Z,5.05
2023-02-22T04:25:59.867Z,5.37
2023-02-22T04:29:04.472Z,4.65
2023-02-22T04:32:09.267Z,4.50
2023-02-22T04:35:12.737Z,5.22
2023-02-22T04:38:15.737Z,4.93
2023-02-22T04:41:20.083Z,4.90
2023-02-22T04:44:23.420Z,5.57
2023-02-22T04:47:26.798Z,4.45
2023-02-22T04:50:30.239Z,4.87
2023-02-22T04:53:33.990Z,5.45
2023-02-22T04:56:37.162Z,5.68
2023-02-22T04:59:41.765Z,4.95
2023-02-22T05:02:46.917Z,4.57
2023-02-22T05:05:52.368Z,5.37
2023-02-22T05:08:55.290Z,5.18
2023-02-22T05:11:59.791Z,5.25
2023-02-22T05:15:05.673Z,5.50
2023-02-22T05:18:09.038Z,5.60
2023-02-22T05:21:13.734Z,6.00
2023-02-22T05:27:21.068Z,6.00
2023-02-22T05:30:28.736Z,6.03
2023-02-22T05:33:31.892Z,6.28
2023-02-22T05:36:35.275Z,6.53
2023-02-22T05:39:38.309Z,6.15
2023-02-22T05:42:41.991Z,6.05
2023-02-22T05:45:45.092Z,5.62
2023-02-22T05:48:48.459Z,5.35
2023-02-22T05:51:51.864Z,6.47
2023-02-22T05:54:55.301Z,5.70
2023-02-22T05:57:58.341Z,6.25
2023-02-22T06:01:03.189Z,5.93
2023-02-22T06:04:06.822Z,5.85
2023-02-22T06:07:10.824Z,6.78
2023-02-22T06:10:14.380Z,6.47
2023-02-22T06:13:17.506Z,5.70
2023-02-22T06:16:21.893Z,6.12
2023-02-22T06:19:25.274Z,6.37
2023-02-22T06:22:28.802Z,6.62
2023-02-22T06:25:32.150Z,6.15
2023-02-22T06:28:35.500Z,6.53
2023-02-22T06:31:38.530Z,5.60
2023-02-22T06:34:41.882Z,5.70
2023-02-22T06:37:45.131Z,5.90
2023-02-22T06:40:48.429Z,6.70
2023-02-22T06:43:51.435Z,6.05
2023-02-22T06:46:54.892Z,6.00
2023-02-22T06:50:00.959Z,7.12
2023-02-22T06:53:04.668Z,5.62
2023-02-22T06:56:07.653Z,5.32
2023-02-22T06:59:11.853Z,6.32
2023-02-22T07:02:16.244Z,6.07
2023-02-22T07:05:21.898Z,6.40
2023-02-22T07:08:24.874Z,6.55
2023-02-22T07:11:28.177Z,6.32
2023-02-22T07:14:31.098Z,8.02
2023-02-22T07:17:34.367Z,6.00
2023-02-22T07:20:37.536Z,6.60
2023-02-22T07:23:40.809Z,6.60
2023-02-22T07:26:43.738Z,5.95
2023-02-22T07:29:46.962Z,6.55
2023-02-22T07:32:49.862Z,7.18
2023-02-22T07:35:53.081Z,7.03
2023-02-22T07:38:55.734Z,7.07
2023-02-22T07:41:59.398Z,7.10
2023-02-22T07:45:04.899Z,7.00
2023-02-22T07:48:08.184Z,6.28
2023-02-22T07:51:11.423Z,5.78
2023-02-22T07:54:14.700Z,6.72
2023-02-22T07:57:17.923Z,6.43
2023-02-22T08:00:41.655Z,6.68
2023-02-22T08:03:47.684Z,6.20
2023-02-22T08:06:50.672Z,5.87
2023-02-22T08:09:54.434Z,7.30
2023-02-22T08:12:57.515Z,6.43
2023-02-22T08:16:01.253Z,7.05
2023-02-22T08:19:04.121Z,5.70
2023-02-22T08:22:07.327Z,5.80
2023-02-22T08:25:10.590Z,5.95
2023-02-22T08:28:16.485Z,6.28
2023-02-22T08:31:19.950Z,5.93
2023-02-22T08:34:24.930Z,5.15
2023-02-22T08:37:28.320Z,5.70
2023-02-22T08:40:34.792Z,6.05
2023-02-22T08:43:37.806Z,6.35
2023-02-22T08:46:41.092Z,6.00
2023-02-22T08:49:44.020Z,5.85
2023-02-22T08:52:47.444Z,6.10
2023-02-22T08:55:51.714Z,6.70
2023-02-22T08:58:56.047Z,5.82
2023-02-22T09:01:58.973Z,6.28
2023-02-22T09:05:02.262Z,5.72
2023-02-22T09:08:05.972Z,6.43
2023-02-22T09:11:09.341Z,5.87
2023-02-22T09:14:12.336Z,6.18
2023-02-22T09:17:15.594Z,5.30
2023-02-22T09:20:21.199Z,6.55
2023-02-22T09:23:26.048Z,8.50
2023-02-22T09:26:28.985Z,6.40
2023-02-22T09:29:32.521Z,7.20
2023-02-22T09:32:36.810Z,6.43
2023-02-22T09:35:46.602Z,6.35
2023-02-22T09:38:50.472Z,5.45
2023-02-22T09:42:16.593Z,6.55
2023-02-22T09:45:32.895Z,6.40
2023-02-22T09:48:46.081Z,6.43
2023-02-22T09:51:53.473Z,7.60
2023-02-22T09:55:26.587Z,6.50
2023-02-22T09:58:33.772Z,7.15
2023-02-22T10:01:44.477Z,6.72
2023-02-22T10:04:58.040Z,5.85
2023-02-22T10:08:06.108Z,6.32
2023-02-22T10:11:18.613Z,6.50
2023-02-22T10:14:33.547Z,6.15
2023-02-22T10:17:59.005Z,6.75
2023-02-22T10:21:14.489Z,8.15
2023-02-22T10:24:25.017Z,6.25
2023-02-22T10:27:43.057Z,6.57
2023-02-22T10:30:55.034Z,6.10
2023-02-22T10:34:03.152Z,6.32
2023-02-22T10:37:34.185Z,6.85
2023-02-22T10:40:39.417Z,6.47
2023-02-22T10:43:43.715Z,6.68
2023-02-22T10:46:47.511Z,6.47
2023-02-22T10:49:53.979Z,6.60
2023-02-22T10:52:57.011Z,6.37
2023-02-22T10:56:21.402Z,6.35
2023-02-22T10:59:29.022Z,7.32
2023-02-22T11:02:36.008Z,6.80
2023-02-22T11:05:41.205Z,6.07
2023-02-22T11:08:50.369Z,6.70
2023-02-22T11:12:11.298Z,7.03
2023-02-22T11:15:17.613Z,6.37
2023-02-22T11:18:29.488Z,6.45
2023-02-22T11:21:32.934Z,6.87
2023-02-22T11:24:49.346Z,7.70
2023-02-22T11:27:54.241Z,6.00
2023-02-22T11:31:19.029Z,5.82
2023-02-22T11:34:28.725Z,5.65
2023-02-22T11:37:36.852Z,6.32
2023-02-22T11:40:40.302Z,5.93
2023-02-22T11:43:47.975Z,6.47
2023-02-22T11:46:55.795Z,5.43
2023-02-22T11:50:02.347Z,6.22
2023-02-22T11:53:15.344Z,6.47
2023-02-22T11:56:40.606Z,8.23
2023-02-22T11:59:56.444Z,5.35
2023-02-22T12:06:16.549Z,6.10
2023-02-22T12:09:27.122Z,6.00
2023-02-22T12:12:45.824Z,5.70
2023-02-22T12:16:12.097Z,5.70
2023-02-22T12:19:25.429Z,5.65
2023-02-22T12:22:34.945Z,6.10
2023-02-22T12:25:47.808Z,5.40
2023-02-22T12:28:50.786Z,5.55
2023-02-22T12:32:06.301Z,5.20
2023-02-22T12:35:23.599Z,5.15
2023-02-22T12:38:38.422Z,5.32
2023-02-22T12:41:47.447Z,5.30
2023-02-22T12:44:57.077Z,5.60
2023-02-22T12:48:21.854Z,5.05
2023-02-22T12:52:15.785Z,5.35
2023-02-22T12:55:42.423Z,5.43
2023-02-22T12:58:54.224Z,5.22
2023-02-22T13:02:01.428Z,5.35
2023-02-22T13:05:05.168Z,5.35
2023-02-22T13:08:23.636Z,5.93
2023-02-22T13:11:38.772Z,5.20
2023-02-22T13:14:50.776Z,5.18
2023-02-22T13:18:07.745Z,3.92
2023-02-22T13:21:23.554Z,4.50
2023-02-22T13:24:35.160Z,4.70
2023-02-22T13:27:45.173Z,4.35
2023-02-22T13:31:04.918Z,3.22
2023-02-22T13:34:40.276Z,2.65
2023-02-22T13:37:50.640Z,2.05
2023-02-22T13:41:02.891Z,1.98
2023-02-22T13:44:12.462Z,2.42
2023-02-22T13:47:15.408Z,2.05
2023-02-22T13:50:30.769Z,2.10
2023-02-22T13:53:50.532Z,1.65
2023-02-22T13:56:55.955Z,2.92
2023-02-22T14:03:43.149Z,5.32
2023-02-22T14:06:46.188Z,5.50
2023-02-22T14:09:57.348Z,5.40
2023-02-22T14:13:09.502Z,4.00
2023-02-22T14:16:12.734Z,4.47
2023-02-22T14:19:18.261Z,4.62
2023-02-22T14:22:28.546Z,4.78
2023-02-22T14:25:32.346Z,4.65
2023-02-22T14:28:43.038Z,4.62
2023-02-22T14:31:51.852Z,4.32
2023-02-22T14:34:58.310Z,3.85
2023-02-22T14:38:01.849Z,4.60
2023-02-22T14:41:05.870Z,5.70
2023-02-22T14:44:12.977Z,5.80
2023-02-22T14:47:32.670Z,4.05
2023-02-22T14:50:41.864Z,3.40
2023-02-22T14:54:01.555Z,3.40
2023-02-22T14:57:15.650Z,4.60
2023-02-22T15:00:31.246Z,5.62
2023-02-22T15:03:37.942Z,5.30
2023-02-22T15:06:41.195Z,5.55
2023-02-22T15:09:46.749Z,6.15
2023-02-22T15:13:09.085Z,7.47
2023-02-22T15:16:14.728Z,7.93
2023-02-22T15:19:25.648Z,7.78
2023-02-22T15:22:35.725Z,8.65
2023-02-22T15:25:40.868Z,8.18
2023-02-22T15:28:44.019Z,7.22
2023-02-22T15:31:48.742Z,8.98
2023-02-22T15:34:52.003Z,8.70
2023-02-22T15:38:06.545Z,8.02
2023-02-22T15:41:22.471Z,10.23
2023-02-22T15:44:25.769Z,8.98
2023-02-22T15:47:32.058Z,13.07
2023-02-22T15:50:35.567Z,15.00
2023-02-22T15:53:44.748Z,11.30
2023-02-22T15:56:50.714Z,11.18
2023-02-22T15:59:56.438Z,9.75
2023-02-22T16:03:00.195Z,8.98
2023-02-22T16:06:09.158Z,9.35
2023-02-22T16:09:15.100Z,8.50
2023-02-22T16:12:21.464Z,8.60
2023-02-22T16:15:24.612Z,7.55
2023-02-22T16:18:33.761Z,7.40
2023-02-22T16:22:10.408Z,7.87
2023-02-22T16:25:21.728Z,7.90
2023-02-22T16:28:34.047Z,7.97
2023-02-22T16:31:39.319Z,7.70
2023-02-22T16:34:43.282Z,7.85
2023-02-22T16:37:49.518Z,9.57
2023-02-22T16:40:55.968Z,6.60
2023-02-22T16:44:00.034Z,6.57
2023-02-22T16:47:03.666Z,11.60
2023-02-22T16:50:07.629Z,38.25
2023-02-22T16:56:29.661Z,29.08
2023-02-22T16:59:38.933Z,15.95
2023-02-22T17:02:42.554Z,11.70
2023-02-22T17:05:45.953Z,10.60
2023-02-22T17:08:52.417Z,11.43
2023-02-22T17:11:56.060Z,14.55
2023-02-22T17:15:00.149Z,20.05
2023-02-22T17:18:23.488Z,19.75
2023-02-22T17:21:27.608Z,12.48
2023-02-22T17:24:31.064Z,11.02
2023-02-22T17:27:34.815Z,11.30
2023-02-22T17:30:40.225Z,12.05
2023-02-22T17:33:45.521Z,16.42
2023-02-22T17:36:49.714Z,39.42
2023-02-22T17:39:55.394Z,34.30
2023-02-22T17:43:01.778Z,22.13
2023-02-22T17:46:08.361Z,13.15
2023-02-22T17:49:14.736Z,10.38
2023-02-22T17:52:20.120Z,8.32
2023-02-22T17:55:25.275Z,7.18
2023-02-22T17:58:35.121Z,6.70
2023-02-22T18:01:39.113Z,6.93
2023-02-22T18:04:44.485Z,7.43
2023-02-22T18:07:49.064Z,7.25
2023-02-22T18:10:57.089Z,8.65
2023-02-22T18:14:01.915Z,8.50
2023-02-22T18:17:06.778Z,7.43
2023-02-22T18:20:12.661Z,6.47
2023-02-22T18:23:20.086Z,6.25
2023-02-22T18:26:28.666Z,6.37
2023-02-22T18:29:38.561Z,7.82
2023-02-22T18:32:47.597Z,7.12
2023-02-22T18:35:53.192Z,9.57
2023-02-22T18:38:58.823Z,9.13
2023-02-22T18:42:04.778Z,9.05
2023-02-22T18:45:10.424Z,8.20
2023-02-22T18:48:18.061Z,7.97
2023-02-22T18:51:24.003Z,8.18
2023-02-22T18:54:30.852Z,7.32
2023-02-22T18:57:40.137Z,7.78
2023-02-22T19:00:45.695Z,7.22
2023-02-22T19:06:58.126Z,7.47
2023-02-22T19:10:03.127Z,8.20
2023-02-22T19:13:11.801Z,8.02
2023-02-22T19:16:20.303Z,7.10
2023-02-22T19:19:26.662Z,7.47
2023-02-22T19:22:33.506Z,8.50
2023-02-22T19:25:41.911Z,8.07
2023-02-22T19:28:49.937Z,9.10
2023-02-22T19:31:57.659Z,14.73
2023-02-22T19:35:08.431Z,10.48
2023-02-22T19:38:14.193Z,8.55
2023-02-22T19:41:23.995Z,9.13
2023-02-22T19:44:29.475Z,8.10
2023-02-22T19:47:36.032Z,8.63
2023-02-22T19:50:49.780Z,9.80
2023-02-22T19:53:55.664Z,9.40
2023-02-22T19:57:01.271Z,12.00
2023-02-22T20:00:12.172Z,10.20
2023-02-22T20:03:26.395Z,8.43
2023-02-22T20:06:40.879Z,8.53
2023-02-22T20:09:46.641Z,7.60
2023-02-22T20:12:51.847Z,7.82
2023-02-22T20:15:59.085Z,7.57
2023-02-22T20:19:05.374Z,7.57
2023-02-22T20:22:10.903Z,7.28
2023-02-22T20:25:18.973Z,7.28
2023-02-22T20:28:25.506Z,6.60
2023-02-22T20:31:31.337Z,6.65
2023-02-22T20:34:36.953Z,6.82
2023-02-22T20:37:43.320Z,6.55
2023-02-22T20:41:03.382Z,7.65
2023-02-22T20:44:08.774Z,6.97
2023-02-22T20:47:15.740Z,6.72
2023-02-22T20:50:22.165Z,6.35
2023-02-22T20:53:26.846Z,6.90
2023-02-22T20:56:32.611Z,6.57
2023-02-22T20:59:37.430Z,6.70
2023-02-22T21:02:41.782Z,7.18
2023-02-22T21:05:47.734Z,7.28
2023-02-22T21:08:57.836Z,6.57
2023-02-22T21:12:02.316Z,7.78
2023-02-22T21:15:07.619Z,7.40
2023-02-22T21:18:14.568Z,7.05
2023-02-22T21:21:22.259Z,7.10
2023-02-22T21:24:30.025Z,7.78
2023-02-22T21:27:42.350Z,6.68
2023-02-22T21:30:48.011Z,7.65
2023-02-22T21:33:55.224Z,7.75
2023-02-22T21:36:59.340Z,7.60
2023-02-22T21:40:12.054Z,6.47
2023-02-22T21:43:20.332Z,7.35
2023-02-22T21:46:25.596Z,6.45
2023-02-22T21:49:28.996Z,7.40
2023-02-22T21:52:32.659Z,6.55
2023-02-22T21:55:38.345Z,7.15
2023-02-22T21:58:44.892Z,6.43
2023-02-22T22:01:56.101Z,5.97
2023-02-22T22:05:00.213Z,5.53
2023-02-22T22:08:07.476Z,6.60
2023-02-22T22:11:12.299Z,6.22
2023-02-22T22:14:17.242Z,6.07
2023-02-22T22:20:24.655Z,6.32
2023-02-22T22:23:27.852Z,6.22
2023-02-22T22:26:31.298Z,6.57
2023-02-22T22:29:34.724Z,6.15
2023-02-22T22:32:38.189Z,6.03
2023-02-22T22:35:42.082Z,5.97
2023-02-22T22:38:48.527Z,6.03
2023-02-22T22:41:52.329Z,6.03
2023-02-22T22:44:56.508Z,6.70
2023-02-22T22:47:59.792Z,6.10
2023-02-22T22:51:06.709Z,6.62
2023-02-22T22:54:10.566Z,6.68
2023-02-22T22:57:15.690Z,7.15
2023-02-22T23:03:36.955Z,5.95
2023-02-22T23:06:41.796Z,6.10
2023-02-22T23:09:44.501Z,5.87
2023-02-22T23:12:47.828Z,5.73
2023-02-22T23:15:53.478Z,6.55
2023-02-22T23:18:58.814Z,5.68
2023-02-22T23:22:05.446Z,5.85
2023-02-22T23:25:10.049Z,6.25
2023-02-22T23:28:14.901Z,5.97
2023-02-22T23:31:18.513Z,5.85
2023-02-22T23:34:23.584Z,5.60
2023-02-22T23:37:28.231Z,6.72
2023-02-22T23:40:31.165Z,6.50
2023-02-22T23:43:34.888Z,5.57
2023-02-22T23:46:41.211Z,6.32
2023-02-22T23:49:49.977Z,6.37
2023-02-22T23:52:57.750Z,5.32
2023-02-22T23:56:01.717Z,5.80
2023-02-22T23:59:12.642Z,5.50
